This is the latest recevied weather packets stored in our database for station/object KE2A-13. If no packets are shown the sender has not sent any weather packets the latest 10 day(s).
| Time | Temp. | Humidity | Pressure | Rain* | Wind** | Luminosity | Snow |
|---|---|---|---|---|---|---|---|
| 1777820400 | 11.11° C | 44% | 1011.3 hPa | - | - | - | - |
| 1777819500 | 12.22° C | 43% | 1011.3 hPa | - | - | - | - |
| 1777818600 | 12.22° C | 44% | 1011.4 hPa | - | - | - | - |
| 1777817700 | 11.67° C | 48% | 1011.4 hPa | - | - | - | - |
| 1777816800 | 10.56° C | 50% | 1011.3 hPa | - | - | - | - |
| 1777815900 | 11.11° C | 52% | 1011.4 hPa | - | - | - | - |
| 1777815000 | 11.67° C | 47% | 1011.5 hPa | - | - | - | - |
| 1777814100 | 10.56° C | 49% | 1011.6 hPa | - | - | - | - |
| 1777813200 | 10.56° C | 49% | 1011.5 hPa | - | - | - | - |
| 1777812300 | 9.44° C | 51% | 1011.5 hPa | - | - | - | - |
| 1777811400 | 10° C | 52% | 1011.5 hPa | - | - | - | - |
| 1777810500 | 9.44° C | 54% | 1011.5 hPa | - | - | - | - |
| 1777808700 | 8.89° C | 55% | 1011.5 hPa | - | - | - | - |
| 1777807800 | 7.78° C | 57% | 1011.5 hPa | - | - | - | - |
| 1777806900 | 6.67° C | 61% | 1011.4 hPa | - | - | - | - |
| 1777806000 | 6.67° C | 63% | 1011.3 hPa | - | - | - | - |
| 1777805100 | 6.11° C | 64% | 1011.1 hPa | - | - | - | - |
| 1777804200 | 6.11° C | 66% | 1011 hPa | - | - | - | - |
| 1777803300 | 6.11° C | 63% | 1010.9 hPa | - | - | - | - |
| 1777802400 | 6.67° C | 62% | 1010.7 hPa | - | - | - | - |
| 1777801500 | 6.67° C | 61% | 1010.5 hPa | - | - | - | - |
| 1777800600 | 6.67° C | 60% | 1010.4 hPa | - | - | - | - |
| 1777799700 | 6.67° C | 61% | 1010.4 hPa | - | - | - | - |
| 1777798800 | 6.11° C | 62% | 1010.3 hPa | - | - | - | - |
| 1777797900 | 6.11° C | 64% | 1010.5 hPa | - | - | - | - |
* Rain since midnight (hover to see other rain measurements)
** Current wind speed in m/s (hover to see current wind gust speed)